createdAt,value
2018-10-05T00:01:18.713Z,7.57
2018-10-05T00:03:47.547Z,8.23
2018-10-05T00:06:16.429Z,6.87
2018-10-05T00:08:45.294Z,8.70
2018-10-05T00:11:14.203Z,8.10
2018-10-05T00:13:43.147Z,8.47
2018-10-05T00:16:12.032Z,8.77
2018-10-05T00:18:41.021Z,9.37
2018-10-05T00:21:09.886Z,8.60
2018-10-05T00:23:38.785Z,8.60
2018-10-05T00:26:07.656Z,8.53
2018-10-05T00:28:36.507Z,8.33
2018-10-05T00:31:05.503Z,9.13
2018-10-05T00:33:34.434Z,9.83
2018-10-05T00:36:03.341Z,9.00
2018-10-05T00:38:32.212Z,10.57
2018-10-05T00:41:01.680Z,9.67
2018-10-05T00:43:31.578Z,8.47
2018-10-05T00:46:00.769Z,8.33
2018-10-05T00:48:29.677Z,8.60
2018-10-05T00:50:58.519Z,7.80
2018-10-05T00:53:27.503Z,8.00
2018-10-05T00:55:56.294Z,8.80
2018-10-05T00:58:25.218Z,8.43
2018-10-05T01:00:54.145Z,8.13
2018-10-05T01:03:23.063Z,7.70
2018-10-05T01:05:51.946Z,8.70
2018-10-05T01:08:20.791Z,6.83
2018-10-05T01:10:49.676Z,8.53
2018-10-05T01:13:18.557Z,7.20
2018-10-05T01:15:47.428Z,7.60
2018-10-05T01:18:18.452Z,7.60
2018-10-05T01:20:47.954Z,7.60
2018-10-05T01:23:16.803Z,7.73
2018-10-05T01:25:45.819Z,7.00
2018-10-05T01:28:14.723Z,7.50
2018-10-05T01:30:43.585Z,6.67
2018-10-05T01:33:12.480Z,7.97
2018-10-05T01:35:41.317Z,8.43
2018-10-05T01:38:10.209Z,7.77
2018-10-05T01:40:39.155Z,7.40
2018-10-05T01:43:08.093Z,7.13
2018-10-05T01:45:36.976Z,6.63
2018-10-05T01:48:06.076Z,7.50
2018-10-05T01:50:41.633Z,7.40
2018-10-05T01:53:10.468Z,8.07
2018-10-05T01:55:39.336Z,7.90
2018-10-05T01:58:08.237Z,8.60
2018-10-05T02:00:37.108Z,8.63
2018-10-05T02:03:05.977Z,7.80
2018-10-05T02:05:35.038Z,6.63
2018-10-05T02:08:03.954Z,7.73
2018-10-05T02:10:32.824Z,7.03
2018-10-05T02:13:01.701Z,7.13
2018-10-05T02:15:30.566Z,7.53
2018-10-05T02:17:59.475Z,8.00
2018-10-05T02:20:28.327Z,7.80
2018-10-05T02:22:57.227Z,7.60
2018-10-05T02:25:26.068Z,6.47
2018-10-05T02:27:54.912Z,8.13
2018-10-05T02:30:23.881Z,7.20
2018-10-05T02:32:52.821Z,6.90
2018-10-05T02:35:21.668Z,7.70
2018-10-05T02:37:50.556Z,6.20
2018-10-05T02:40:19.383Z,7.50
2018-10-05T02:42:48.285Z,7.57
2018-10-05T02:45:17.099Z,8.20
2018-10-05T02:47:46.025Z,7.70
2018-10-05T02:50:14.892Z,8.40
2018-10-05T02:52:43.819Z,10.23
2018-10-05T02:55:12.676Z,7.80
2018-10-05T02:57:41.610Z,8.87
2018-10-05T03:00:27.805Z,8.70
2018-10-05T03:02:56.653Z,8.33
2018-10-05T03:05:25.571Z,7.80
2018-10-05T03:07:54.499Z,10.10
2018-10-05T03:10:23.324Z,10.47
2018-10-05T03:12:52.146Z,8.20
2018-10-05T03:15:21.052Z,8.47
2018-10-05T03:17:49.907Z,8.40
2018-10-05T03:20:18.797Z,10.03
2018-10-05T03:22:47.656Z,8.37
2018-10-05T03:25:16.504Z,8.80
2018-10-05T03:27:45.354Z,10.17
2018-10-05T03:30:14.196Z,8.90
2018-10-05T03:32:43.043Z,10.17
2018-10-05T03:35:11.920Z,9.20
2018-10-05T03:37:40.785Z,9.37
2018-10-05T03:40:09.649Z,9.17
2018-10-05T03:42:38.473Z,10.17
2018-10-05T03:45:07.356Z,10.37
2018-10-05T03:47:36.252Z,9.97
2018-10-05T03:50:05.091Z,9.97
2018-10-05T03:52:33.908Z,10.60
2018-10-05T03:55:02.769Z,9.37
2018-10-05T03:57:31.598Z,10.50
2018-10-05T04:00:00.465Z,9.27
2018-10-05T04:02:29.318Z,9.97
2018-10-05T04:04:58.179Z,9.13
2018-10-05T04:07:27.047Z,9.03
2018-10-05T04:09:55.895Z,10.00
2018-10-05T04:12:24.724Z,8.83
2018-10-05T04:14:53.569Z,10.10
2018-10-05T04:17:22.398Z,8.70
2018-10-05T04:19:51.211Z,7.93
2018-10-05T04:22:23.830Z,8.87
2018-10-05T04:24:52.776Z,9.93
2018-10-05T04:27:21.752Z,8.27
2018-10-05T04:29:50.658Z,6.90
2018-10-05T04:32:19.491Z,8.80
2018-10-05T04:34:48.340Z,8.60
2018-10-05T04:37:17.261Z,8.57
2018-10-05T04:39:46.100Z,9.10
2018-10-05T04:42:14.973Z,8.53
2018-10-05T04:44:43.802Z,7.97
2018-10-05T04:47:12.643Z,7.80
2018-10-05T04:49:41.637Z,7.17
2018-10-05T04:52:10.467Z,7.50
2018-10-05T04:54:39.290Z,7.17
2018-10-05T04:57:08.114Z,6.67
2018-10-05T04:59:36.985Z,8.93
2018-10-05T05:02:06.548Z,8.03
2018-10-05T05:04:35.392Z,7.83
2018-10-05T05:07:04.288Z,7.50
2018-10-05T05:09:33.110Z,7.03
2018-10-05T05:12:01.993Z,8.13
2018-10-05T05:14:30.795Z,7.40
2018-10-05T05:16:59.703Z,7.97
2018-10-05T05:19:28.589Z,9.23
2018-10-05T05:21:57.532Z,7.40
2018-10-05T05:24:26.358Z,7.93
2018-10-05T05:26:55.224Z,6.90
2018-10-05T05:29:24.153Z,7.77
2018-10-05T05:31:53.028Z,8.90
2018-10-05T05:34:21.888Z,9.37
2018-10-05T05:36:51.199Z,7.47
2018-10-05T05:39:20.031Z,7.33
2018-10-05T05:41:48.867Z,7.30
2018-10-05T05:44:17.805Z,7.07
2018-10-05T05:46:46.669Z,6.97
2018-10-05T05:49:15.544Z,7.23
2018-10-05T05:51:44.388Z,7.30
2018-10-05T05:54:13.283Z,8.17
2018-10-05T05:56:42.071Z,7.37
2018-10-05T05:59:10.896Z,7.00
2018-10-05T06:01:39.713Z,8.13
2018-10-05T06:04:08.543Z,7.30
2018-10-05T06:06:37.375Z,7.43
2018-10-05T06:09:08.525Z,6.27
2018-10-05T06:11:37.405Z,6.80
2018-10-05T06:14:06.607Z,7.27
2018-10-05T06:16:35.562Z,7.40
2018-10-05T06:19:04.368Z,8.10
2018-10-05T06:21:33.265Z,7.30
2018-10-05T06:24:02.164Z,7.03
2018-10-05T06:26:30.983Z,7.07
2018-10-05T06:28:59.811Z,8.10
2018-10-05T06:31:28.699Z,7.10
2018-10-05T06:33:57.539Z,6.70
2018-10-05T06:36:26.359Z,6.90
2018-10-05T06:38:55.196Z,7.47
2018-10-05T06:41:24.011Z,5.80
2018-10-05T06:43:53.078Z,6.90
2018-10-05T06:46:21.920Z,6.40
2018-10-05T06:48:50.790Z,6.67
2018-10-05T06:51:19.590Z,6.13
2018-10-05T06:53:48.549Z,6.77
2018-10-05T06:56:17.430Z,5.80
2018-10-05T06:58:46.447Z,7.00
2018-10-05T07:01:15.333Z,5.90
2018-10-05T07:03:44.320Z,6.00
2018-10-05T07:06:13.321Z,6.40
2018-10-05T07:08:42.155Z,8.07
2018-10-05T07:11:10.963Z,6.53
2018-10-05T07:13:39.824Z,5.50
2018-10-05T07:16:08.860Z,5.93
2018-10-05T07:18:37.699Z,5.70
2018-10-05T07:21:06.732Z,5.07
2018-10-05T07:23:35.701Z,5.60
2018-10-05T07:26:04.727Z,4.77
2018-10-05T07:28:34.119Z,5.93
2018-10-05T07:31:02.708Z,5.20
2018-10-05T07:33:31.577Z,6.07
2018-10-05T07:36:00.394Z,5.50
2018-10-05T07:38:29.346Z,5.50
2018-10-05T07:40:58.256Z,5.80
2018-10-05T07:43:27.171Z,5.40
2018-10-05T07:45:56.107Z,6.07
2018-10-05T07:48:24.963Z,5.60
2018-10-05T07:50:53.995Z,5.07
2018-10-05T07:53:22.990Z,5.33
2018-10-05T07:55:51.986Z,4.87
2018-10-05T07:58:20.801Z,5.80
2018-10-05T08:00:49.680Z,5.40
2018-10-05T08:03:18.511Z,5.30
2018-10-05T08:05:47.415Z,4.70
2018-10-05T08:08:16.227Z,4.90
2018-10-05T08:10:45.072Z,5.00
2018-10-05T08:13:13.895Z,5.33
2018-10-05T08:15:42.727Z,5.00
2018-10-05T08:18:11.519Z,5.87
2018-10-05T08:20:40.347Z,4.90
2018-10-05T08:23:09.216Z,5.07
2018-10-05T08:25:38.059Z,5.10
2018-10-05T08:28:06.948Z,4.60
2018-10-05T08:30:35.808Z,5.33
2018-10-05T08:33:05.477Z,4.47
2018-10-05T08:35:34.344Z,5.10
2018-10-05T08:38:03.202Z,5.70
2018-10-05T08:40:32.036Z,5.13
2018-10-05T08:43:00.918Z,4.97
2018-10-05T08:45:29.773Z,4.50
2018-10-05T08:47:58.654Z,5.20
2018-10-05T08:50:27.499Z,4.90
2018-10-05T08:52:56.316Z,4.80
2018-10-05T08:55:25.136Z,4.50
2018-10-05T08:57:53.959Z,3.37
2018-10-05T09:00:22.924Z,4.23
2018-10-05T09:02:51.716Z,4.10
2018-10-05T09:05:21.407Z,3.90
2018-10-05T09:07:50.302Z,4.10
2018-10-05T09:10:19.149Z,4.33
2018-10-05T09:12:47.972Z,3.13
2018-10-05T09:15:16.831Z,4.53
2018-10-05T09:17:45.715Z,3.67
2018-10-05T09:20:14.576Z,4.03
2018-10-05T09:22:43.436Z,3.70
2018-10-05T09:25:12.254Z,3.80
2018-10-05T09:27:41.087Z,3.30
2018-10-05T09:30:09.933Z,3.13
2018-10-05T09:32:38.750Z,3.23
2018-10-05T09:35:07.563Z,3.20
2018-10-05T09:37:36.567Z,3.33
2018-10-05T09:40:05.363Z,3.40
2018-10-05T09:42:34.213Z,3.60
2018-10-05T09:45:03.103Z,3.20
2018-10-05T09:47:31.938Z,2.87
2018-10-05T09:50:00.739Z,3.67
2018-10-05T09:52:29.656Z,2.80
2018-10-05T09:54:58.484Z,2.90
2018-10-05T09:57:27.312Z,2.87
2018-10-05T09:59:56.205Z,3.73
2018-10-05T10:02:30.507Z,3.93
2018-10-05T10:04:59.352Z,4.20
2018-10-05T10:07:28.183Z,3.10
2018-10-05T10:09:56.982Z,4.00
2018-10-05T10:12:25.844Z,3.80
2018-10-05T10:14:54.671Z,3.97
2018-10-05T10:17:23.485Z,3.60
2018-10-05T10:19:52.291Z,3.27
2018-10-05T10:22:21.127Z,3.30
2018-10-05T10:24:49.993Z,3.20
2018-10-05T10:27:18.807Z,3.60
2018-10-05T10:29:47.708Z,3.40
2018-10-05T10:32:16.563Z,3.23
2018-10-05T10:34:45.492Z,3.07
2018-10-05T10:37:14.287Z,3.60
2018-10-05T10:39:43.091Z,3.50
2018-10-05T10:42:11.964Z,3.63
2018-10-05T10:44:40.773Z,2.40
2018-10-05T10:47:09.684Z,3.50
2018-10-05T10:49:38.552Z,3.50
2018-10-05T10:52:07.598Z,3.33
2018-10-05T10:54:36.404Z,3.37
2018-10-05T10:57:05.243Z,3.30
2018-10-05T10:59:34.066Z,4.23
2018-10-05T11:02:02.878Z,3.13
2018-10-05T11:04:31.715Z,3.90
2018-10-05T11:07:00.618Z,3.23
2018-10-05T11:09:29.474Z,3.53
2018-10-05T11:11:58.274Z,3.30
2018-10-05T11:14:27.116Z,3.30
2018-10-05T11:16:56.236Z,3.00
2018-10-05T11:19:25.059Z,3.10
2018-10-05T11:21:54.028Z,3.90
2018-10-05T11:24:22.912Z,3.40
2018-10-05T11:26:51.729Z,3.80
2018-10-05T11:29:20.540Z,3.53
2018-10-05T11:31:49.354Z,3.33
2018-10-05T11:34:18.209Z,2.90
2018-10-05T11:36:47.136Z,3.77
2018-10-05T11:39:15.972Z,3.50
2018-10-05T11:41:44.818Z,2.80
2018-10-05T11:44:13.746Z,4.03
2018-10-05T11:46:42.785Z,3.30
2018-10-05T11:49:11.595Z,3.43
2018-10-05T11:51:40.470Z,4.53
2018-10-05T11:54:09.540Z,3.10
2018-10-05T11:56:39.155Z,3.23
2018-10-05T11:59:08.003Z,3.30
2018-10-05T12:01:36.845Z,4.40
2018-10-05T12:04:05.701Z,3.37
2018-10-05T12:06:34.510Z,3.77
2018-10-05T12:09:04.507Z,3.33
2018-10-05T12:11:33.420Z,3.90
2018-10-05T12:14:02.405Z,2.80
2018-10-05T12:16:31.248Z,3.83
2018-10-05T12:19:00.084Z,3.80
2018-10-05T12:21:29.023Z,3.33
2018-10-05T12:23:57.838Z,4.07
2018-10-05T12:26:26.779Z,4.10
2018-10-05T12:28:55.607Z,3.60
2018-10-05T12:31:26.781Z,2.60
2018-10-05T12:33:55.620Z,3.30
2018-10-05T12:36:24.500Z,3.40
2018-10-05T12:38:53.647Z,3.70
2018-10-05T12:41:22.496Z,3.33
2018-10-05T12:43:51.328Z,4.00
2018-10-05T12:46:20.220Z,3.30
2018-10-05T12:48:49.733Z,2.80
2018-10-05T12:51:18.699Z,3.50
2018-10-05T12:53:47.515Z,3.40
2018-10-05T12:56:16.577Z,3.10
2018-10-05T12:58:45.427Z,3.77
2018-10-05T13:01:14.231Z,3.77
2018-10-05T13:03:43.055Z,3.83
2018-10-05T13:06:11.939Z,3.37
2018-10-05T13:08:40.799Z,3.63
2018-10-05T13:11:09.879Z,3.77
2018-10-05T13:13:38.742Z,4.00
2018-10-05T13:16:08.255Z,3.50
2018-10-05T13:18:37.260Z,4.17
2018-10-05T13:21:06.886Z,3.70
2018-10-05T13:23:35.708Z,3.90
2018-10-05T13:26:04.568Z,3.43
2018-10-05T13:28:33.506Z,3.77
2018-10-05T13:31:02.346Z,3.77
2018-10-05T13:33:31.370Z,4.20
2018-10-05T13:36:00.288Z,4.03
2018-10-05T13:38:29.094Z,3.90
2018-10-05T13:40:57.941Z,4.53
2018-10-05T13:43:26.788Z,2.97
2018-10-05T13:45:55.665Z,2.70
2018-10-05T13:48:24.502Z,3.20
2018-10-05T13:50:53.607Z,3.20
2018-10-05T13:53:22.959Z,3.23
2018-10-05T13:55:51.808Z,2.83
2018-10-05T13:58:21.490Z,3.40
2018-10-05T14:00:50.342Z,3.40
2018-10-05T14:03:19.162Z,3.03
2018-10-05T14:05:48.718Z,3.50
2018-10-05T14:08:17.813Z,3.73
2018-10-05T14:10:48.381Z,3.37
2018-10-05T14:13:17.266Z,3.20
2018-10-05T14:15:46.144Z,3.70
2018-10-05T14:18:14.995Z,3.20
2018-10-05T14:20:43.854Z,2.50
2018-10-05T14:23:12.658Z,2.77
2018-10-05T14:25:41.626Z,3.00
2018-10-05T14:28:10.436Z,3.10
2018-10-05T14:30:39.277Z,2.87
2018-10-05T14:33:08.111Z,3.80
2018-10-05T14:35:36.968Z,3.80
2018-10-05T14:38:05.881Z,3.50
2018-10-05T14:40:34.659Z,3.50
2018-10-05T14:43:03.474Z,3.60
2018-10-05T14:45:32.355Z,3.63
2018-10-05T14:48:01.298Z,3.20
2018-10-05T14:50:30.099Z,3.00
2018-10-05T14:52:58.886Z,3.10
2018-10-05T14:55:27.694Z,3.50
2018-10-05T14:57:56.498Z,3.27
2018-10-05T15:00:25.312Z,3.10
2018-10-05T15:02:54.152Z,3.47
2018-10-05T15:05:23.000Z,3.17
2018-10-05T15:07:51.823Z,2.90
2018-10-05T15:10:20.652Z,3.47
2018-10-05T15:12:49.536Z,3.00
2018-10-05T15:15:18.349Z,3.00
2018-10-05T15:17:47.213Z,2.40
2018-10-05T15:20:16.015Z,2.43
2018-10-05T15:22:44.803Z,2.97
2018-10-05T15:25:13.644Z,2.93
2018-10-05T15:27:42.465Z,3.10
2018-10-05T15:30:11.328Z,3.40
2018-10-05T15:32:40.142Z,3.50
2018-10-05T15:35:08.992Z,3.43
2018-10-05T15:37:37.783Z,3.80
2018-10-05T15:40:06.594Z,3.20
2018-10-05T15:42:35.437Z,3.10
2018-10-05T15:45:04.273Z,3.23
2018-10-05T15:47:33.087Z,2.93
2018-10-05T15:50:01.914Z,2.90
2018-10-05T15:52:31.014Z,3.60
2018-10-05T15:54:59.915Z,3.03
2018-10-05T15:57:28.588Z,3.47
2018-10-05T15:59:57.386Z,3.47
2018-10-05T16:02:26.207Z,3.50
2018-10-05T16:04:55.060Z,3.53
2018-10-05T16:07:23.853Z,3.50
2018-10-05T16:09:52.702Z,3.17
2018-10-05T16:12:21.587Z,4.00
2018-10-05T16:14:50.389Z,4.10
2018-10-05T16:17:19.204Z,3.77
2018-10-05T16:19:48.044Z,4.33
2018-10-05T16:22:16.888Z,4.20
2018-10-05T16:24:45.838Z,4.80
2018-10-05T16:27:14.832Z,4.20
2018-10-05T16:29:43.677Z,4.33
2018-10-05T16:32:12.893Z,3.57
2018-10-05T16:34:42.023Z,3.87
2018-10-05T16:37:10.898Z,3.57
2018-10-05T16:39:41.957Z,4.10
2018-10-05T16:42:10.779Z,3.80
2018-10-05T16:44:39.612Z,4.20
2018-10-05T16:47:08.518Z,3.90
2018-10-05T16:49:37.326Z,3.47
2018-10-05T16:52:06.130Z,4.00
2018-10-05T16:54:34.990Z,3.60
2018-10-05T16:57:03.834Z,3.33
2018-10-05T16:59:32.707Z,5.23
2018-10-05T17:02:01.541Z,5.07
2018-10-05T17:04:30.381Z,5.50
2018-10-05T17:06:59.207Z,7.60
2018-10-05T17:09:28.030Z,7.23
2018-10-05T17:11:56.860Z,9.10
2018-10-05T17:14:25.654Z,5.83
2018-10-05T17:16:54.511Z,6.17
2018-10-05T17:19:23.308Z,5.47
2018-10-05T17:21:52.118Z,16.37
2018-10-05T17:24:20.955Z,11.70
2018-10-05T17:26:49.766Z,10.23
2018-10-05T17:29:18.629Z,6.00
2018-10-05T17:31:47.467Z,6.53
2018-10-05T17:34:16.288Z,7.20
2018-10-05T17:36:45.109Z,5.57
2018-10-05T17:39:13.947Z,6.67
2018-10-05T17:41:42.788Z,6.07
2018-10-05T17:44:11.629Z,6.60
2018-10-05T17:46:40.482Z,6.80
2018-10-05T17:49:09.335Z,7.20
2018-10-05T17:51:38.169Z,6.77
2018-10-05T17:54:06.990Z,7.80
2018-10-05T17:56:35.829Z,6.53
2018-10-05T17:59:04.660Z,6.83
2018-10-05T18:01:33.494Z,7.90
2018-10-05T18:04:02.384Z,9.80
2018-10-05T18:06:31.214Z,8.37
2018-10-05T18:09:00.054Z,9.60
2018-10-05T18:11:28.895Z,9.83
2018-10-05T18:13:57.772Z,10.13
2018-10-05T18:16:26.616Z,9.43
2018-10-05T18:18:55.455Z,8.60
2018-10-05T18:21:24.292Z,7.50
2018-10-05T18:23:53.108Z,8.17
2018-10-05T18:26:22.040Z,8.60
2018-10-05T18:28:50.886Z,7.93
2018-10-05T18:31:19.703Z,7.77
2018-10-05T18:33:48.588Z,8.80
2018-10-05T18:36:17.373Z,9.17
2018-10-05T18:38:46.182Z,7.60
2018-10-05T18:41:15.038Z,7.80
2018-10-05T18:43:43.863Z,7.53
2018-10-05T18:46:12.688Z,7.83
2018-10-05T18:48:41.546Z,6.93
2018-10-05T18:51:10.443Z,7.10
2018-10-05T18:53:39.267Z,8.07
2018-10-05T18:56:25.255Z,8.07
2018-10-05T18:58:54.066Z,7.90
2018-10-05T19:01:22.867Z,8.07
2018-10-05T19:03:51.725Z,7.63
2018-10-05T19:06:20.562Z,7.97
2018-10-05T19:08:49.402Z,8.17
2018-10-05T19:11:18.250Z,8.80
2018-10-05T19:13:47.177Z,8.40
2018-10-05T19:16:16.002Z,7.57
2018-10-05T19:18:44.816Z,8.27
2018-10-05T19:21:13.681Z,8.13
2018-10-05T19:23:42.588Z,8.27
2018-10-05T19:26:11.547Z,8.70
2018-10-05T19:28:40.317Z,8.53
2018-10-05T19:31:09.208Z,8.90
2018-10-05T19:33:38.077Z,9.83
2018-10-05T19:36:07.084Z,8.33
2018-10-05T19:38:36.220Z,8.27
2018-10-05T19:41:05.113Z,8.50
2018-10-05T19:43:34.056Z,12.50
2018-10-05T19:46:02.871Z,8.67
2018-10-05T19:48:31.735Z,9.77
2018-10-05T19:51:00.633Z,8.53
2018-10-05T19:53:29.498Z,9.20
2018-10-05T19:56:04.105Z,9.37
2018-10-05T19:58:32.939Z,9.43
2018-10-05T20:01:01.755Z,8.67
2018-10-05T20:03:30.621Z,9.20
2018-10-05T20:05:59.442Z,8.57
2018-10-05T20:08:28.355Z,8.53
2018-10-05T20:10:57.223Z,9.07
2018-10-05T20:13:26.052Z,9.47
2018-10-05T20:15:54.931Z,9.27
2018-10-05T20:18:23.818Z,9.53
2018-10-05T20:20:52.633Z,9.43
2018-10-05T20:23:21.455Z,8.80
2018-10-05T20:25:50.297Z,8.70
2018-10-05T20:28:19.168Z,8.37
2018-10-05T20:30:47.995Z,8.50
2018-10-05T20:33:16.913Z,9.83
2018-10-05T20:35:45.777Z,8.70
2018-10-05T20:38:14.792Z,9.87
2018-10-05T20:40:43.619Z,8.73
2018-10-05T20:43:12.503Z,9.40
2018-10-05T20:45:41.335Z,9.10
2018-10-05T20:48:10.209Z,9.20
2018-10-05T20:50:39.034Z,9.13
2018-10-05T20:53:07.883Z,9.00
2018-10-05T20:55:36.750Z,8.10
2018-10-05T20:58:05.667Z,8.23
2018-10-05T21:00:34.547Z,8.20
2018-10-05T21:03:03.369Z,6.83
2018-10-05T21:05:32.252Z,8.00
2018-10-05T21:08:01.100Z,8.40
2018-10-05T21:10:30.004Z,8.50
2018-10-05T21:12:59.000Z,7.23
2018-10-05T21:15:27.839Z,7.53
2018-10-05T21:17:56.683Z,8.40
2018-10-05T21:20:25.572Z,7.33
2018-10-05T21:22:54.491Z,8.03
2018-10-05T21:25:23.309Z,7.97
2018-10-05T21:27:52.159Z,7.60
2018-10-05T21:30:21.043Z,8.40
2018-10-05T21:32:49.974Z,7.97
2018-10-05T21:35:18.799Z,6.80
2018-10-05T21:37:47.648Z,7.63
2018-10-05T21:40:16.497Z,6.33
2018-10-05T21:42:45.438Z,6.80
2018-10-05T21:45:14.306Z,7.10
2018-10-05T21:47:43.179Z,6.23
2018-10-05T21:50:12.074Z,7.00
2018-10-05T21:52:40.899Z,7.07
2018-10-05T21:55:09.710Z,6.30
2018-10-05T21:57:38.588Z,6.43
2018-10-05T22:00:07.559Z,6.80
2018-10-05T22:02:36.803Z,6.93
2018-10-05T22:05:07.016Z,6.87
2018-10-05T22:07:36.224Z,7.10
2018-10-05T22:10:05.207Z,6.30
2018-10-05T22:12:34.011Z,7.67
2018-10-05T22:15:02.872Z,7.73
2018-10-05T22:17:31.740Z,8.90
2018-10-05T22:20:00.654Z,8.53
2018-10-05T22:22:29.482Z,8.70
2018-10-05T22:24:58.303Z,8.40
2018-10-05T22:27:27.199Z,7.77
2018-10-05T22:29:56.091Z,8.37
2018-10-05T22:32:24.952Z,8.27
2018-10-05T22:34:53.779Z,7.70
2018-10-05T22:37:22.611Z,8.73
2018-10-05T22:39:51.438Z,7.03
2018-10-05T22:42:20.277Z,7.77
2018-10-05T22:44:49.140Z,7.37
2018-10-05T22:47:17.991Z,7.63
2018-10-05T22:49:46.934Z,7.77
2018-10-05T22:52:16.158Z,7.03
2018-10-05T22:54:44.984Z,7.03
2018-10-05T22:57:13.853Z,6.60
2018-10-05T22:59:42.696Z,6.80
2018-10-05T23:02:11.575Z,7.00
2018-10-05T23:04:40.388Z,6.20
2018-10-05T23:07:09.251Z,6.70
2018-10-05T23:09:38.104Z,7.27
2018-10-05T23:12:07.248Z,6.60
2018-10-05T23:14:36.135Z,7.53
2018-10-05T23:17:05.013Z,7.20
2018-10-05T23:19:33.903Z,6.20
2018-10-05T23:22:02.919Z,6.90
2018-10-05T23:24:31.746Z,7.20
2018-10-05T23:27:00.583Z,7.47
2018-10-05T23:29:29.394Z,6.40
2018-10-05T23:31:58.264Z,6.60
2018-10-05T23:34:41.060Z,7.00
2018-10-05T23:37:09.937Z,8.40
2018-10-05T23:39:38.812Z,7.40
2018-10-05T23:42:07.805Z,7.40
2018-10-05T23:44:36.648Z,8.53
2018-10-05T23:47:05.769Z,6.50
2018-10-05T23:49:34.803Z,6.80
2018-10-05T23:52:22.359Z,6.87
2018-10-05T23:54:51.171Z,7.50
2018-10-05T23:57:20.004Z,7.70
2018-10-05T23:59:48.883Z,7.00
